createdAt,value
2023-04-20T00:00:35.820Z,101330.53
2023-04-20T00:05:37.491Z,101329.41
2023-04-20T00:10:39.464Z,101318.69
2023-04-20T00:15:41.121Z,101318.19
2023-04-20T00:20:42.727Z,101301.09
2023-04-20T00:25:44.559Z,101289.69
2023-04-20T00:30:46.231Z,101273.84
2023-04-20T00:35:48.119Z,101276.72
2023-04-20T00:40:50.655Z,101268.97
2023-04-20T00:45:52.495Z,101264.09
2023-04-20T00:50:54.663Z,101266.56
2023-04-20T00:55:56.724Z,101254.50
2023-04-20T01:00:58.781Z,101251.94
2023-04-20T01:06:01.387Z,101243.09
2023-04-20T01:11:03.635Z,101239.50
2023-04-20T01:16:05.413Z,101234.59
2023-04-20T01:21:07.244Z,101233.09
2023-04-20T01:26:11.267Z,101228.72
2023-04-20T01:31:13.741Z,101224.44
2023-04-20T01:36:15.950Z,101222.16
2023-04-20T01:41:19.905Z,101217.59
2023-04-20T01:46:21.784Z,101210.72
2023-04-20T01:51:23.440Z,101208.75
2023-04-20T01:56:25.164Z,101202.22
2023-04-20T02:01:27.051Z,101194.84
2023-04-20T02:06:29.076Z,101203.03
2023-04-20T02:11:30.820Z,101191.25
2023-04-20T02:16:32.534Z,101182.09
2023-04-20T02:21:34.213Z,101178.84
2023-04-20T02:26:36.199Z,101163.63
2023-04-20T02:31:37.975Z,101148.06
2023-04-20T02:36:39.758Z,101145.78
2023-04-20T02:41:41.259Z,101141.88
2023-04-20T02:46:43.468Z,101138.94
2023-04-20T02:51:45.702Z,101131.88
2023-04-20T02:56:47.319Z,101127.00
2023-04-20T03:01:49.457Z,101121.44
2023-04-20T03:06:55.144Z,101117.84
2023-04-20T03:12:01.898Z,101118.31
2023-04-20T03:17:24.138Z,101118.81
2023-04-20T03:22:26.288Z,101108.03
2023-04-20T03:27:32.589Z,101110.94
2023-04-20T03:32:42.089Z,101107.66
2023-04-20T03:37:43.930Z,101108.47
2023-04-20T03:42:46.006Z,101098.22
2023-04-20T03:47:47.886Z,101096.25
2023-04-20T03:52:49.604Z,101094.97
2023-04-20T03:57:51.359Z,101090.22
2023-04-20T04:02:53.635Z,101088.91
2023-04-20T04:08:00.441Z,101085.94
2023-04-20T04:13:03.566Z,101081.06
2023-04-20T04:18:05.940Z,101077.13
2023-04-20T04:23:10.688Z,101083.50
2023-04-20T04:28:31.014Z,101087.09
2023-04-20T04:33:45.919Z,101086.47
2023-04-20T04:38:53.312Z,101081.09
2023-04-20T04:43:56.685Z,101079.72
2023-04-20T04:49:04.606Z,101074.28
2023-04-20T04:54:06.312Z,101073.69
2023-04-20T04:59:08.164Z,101064.47
2023-04-20T05:04:09.868Z,101063.53
2023-04-20T05:09:11.572Z,101062.28
2023-04-20T05:14:13.712Z,101064.91
2023-04-20T05:19:15.441Z,101057.78
2023-04-20T05:24:18.459Z,101066.91
2023-04-20T05:29:20.222Z,101058.97
2023-04-20T05:34:21.808Z,101058.69
2023-04-20T05:39:23.449Z,101067.13
2023-04-20T05:44:25.504Z,101066.69
2023-04-20T05:49:27.077Z,101062.66
2023-04-20T05:54:29.402Z,101062.81
2023-04-20T05:59:31.634Z,101061.69
2023-04-20T06:04:33.407Z,101062.78
2023-04-20T06:09:35.770Z,101059.53
2023-04-20T06:14:37.328Z,101068.00
2023-04-20T06:19:39.097Z,101056.50
2023-04-20T06:24:41.109Z,101069.19
2023-04-20T06:29:42.685Z,101064.41
2023-04-20T06:34:44.534Z,101052.13
2023-04-20T06:39:46.130Z,101056.34
2023-04-20T06:44:47.745Z,101057.94
2023-04-20T06:49:49.284Z,101056.97
2023-04-20T06:54:50.841Z,101053.69
2023-04-20T06:59:52.422Z,101046.03
2023-04-20T07:04:59.758Z,101056.34
2023-04-20T07:10:01.344Z,101048.97
2023-04-20T07:15:04.413Z,101050.56
2023-04-20T07:20:07.011Z,101045.59
2023-04-20T07:25:09.688Z,101048.69
2023-04-20T07:30:12.000Z,101039.63
2023-04-20T07:35:13.569Z,101036.22
2023-04-20T07:40:15.147Z,101039.00
2023-04-20T07:45:16.733Z,101044.63
2023-04-20T07:50:18.247Z,101036.72
2023-04-20T07:55:19.878Z,101041.34
2023-04-20T08:00:21.434Z,101044.78
2023-04-20T08:05:23.190Z,101040.53
2023-04-20T08:10:25.013Z,101035.19
2023-04-20T08:15:26.588Z,101037.81
2023-04-20T08:20:28.196Z,101035.19
2023-04-20T08:25:29.726Z,101038.34
2023-04-20T08:30:31.210Z,101038.88
2023-04-20T08:35:32.696Z,101028.06
2023-04-20T08:40:36.329Z,101024.31
2023-04-20T08:45:38.820Z,101023.22
2023-04-20T08:50:43.725Z,101018.31
2023-04-20T08:55:45.320Z,101017.00
2023-04-20T09:00:48.117Z,101016.66
2023-04-20T09:05:49.947Z,101018.47
2023-04-20T09:10:51.447Z,101008.34
2023-04-20T09:15:53.044Z,101014.00
2023-04-20T09:20:55.227Z,101014.13
2023-04-20T09:25:56.870Z,101010.19
2023-04-20T09:30:58.386Z,101016.00
2023-04-20T09:36:04.737Z,101003.72
2023-04-20T09:41:07.144Z,101005.53
2023-04-20T09:46:09.171Z,101006.72
2023-04-20T09:51:11.220Z,101005.72
2023-04-20T09:56:15.398Z,101005.41
2023-04-20T10:01:17.529Z,101005.03
2023-04-20T10:06:19.215Z,101008.50
2023-04-20T10:11:51.550Z,101021.09
2023-04-20T10:17:09.559Z,101002.56
2023-04-20T10:22:26.516Z,100986.28
2023-04-20T10:27:28.462Z,100985.69
2023-04-20T10:32:30.125Z,100978.97
2023-04-20T10:37:32.359Z,100980.16
2023-04-20T10:42:44.359Z,100989.13
2023-04-20T10:47:45.926Z,100991.25
2023-04-20T10:52:47.671Z,100980.22
2023-04-20T10:57:50.027Z,100979.13
2023-04-20T11:02:56.216Z,100975.34
2023-04-20T11:08:00.381Z,100975.53
2023-04-20T11:13:02.241Z,100968.91
2023-04-20T11:18:11.501Z,100970.22
2023-04-20T11:23:13.109Z,100973.16
2023-04-20T11:28:14.914Z,100977.63
2023-04-20T11:33:32.283Z,100974.72
2023-04-20T11:38:34.866Z,100969.00
2023-04-20T11:43:36.369Z,100976.78
2023-04-20T11:48:37.878Z,100972.31
2023-04-20T11:53:39.414Z,100967.56
2023-04-20T11:58:41.384Z,100956.56
2023-04-20T12:03:47.015Z,100961.47
2023-04-20T12:08:49.581Z,100957.81
2023-04-20T12:13:51.450Z,100955.88
2023-04-20T12:18:53.471Z,100968.81
2023-04-20T12:23:55.038Z,100971.53
2023-04-20T12:28:57.782Z,100953.94
2023-04-20T12:33:59.693Z,100955.41
2023-04-20T12:39:01.815Z,100951.66
2023-04-20T12:44:06.469Z,100954.94
2023-04-20T12:49:10.133Z,100947.19
2023-04-20T12:54:12.232Z,100947.53
2023-04-20T12:59:14.005Z,100935.31
2023-04-20T13:04:16.133Z,100930.38
2023-04-20T13:09:18.158Z,100929.31
2023-04-20T13:14:20.352Z,100918.16
2023-04-20T13:19:22.128Z,100915.00
2023-04-20T13:24:23.676Z,100908.19
2023-04-20T13:29:26.120Z,100904.34
2023-04-20T13:34:27.660Z,100893.53
2023-04-20T13:39:29.747Z,100884.44
2023-04-20T13:44:31.344Z,100886.75
2023-04-20T13:49:32.933Z,100874.28
2023-04-20T13:54:34.429Z,100877.47
2023-04-20T13:59:36.524Z,100878.59
2023-04-20T14:04:38.114Z,100875.25
2023-04-20T14:09:39.811Z,100870.22
2023-04-20T14:14:41.453Z,100874.34
2023-04-20T14:19:43.455Z,100864.25
2023-04-20T14:24:45.016Z,100862.22
2023-04-20T14:29:47.336Z,100847.50
2023-04-20T14:34:48.878Z,100856.25
2023-04-20T14:39:50.999Z,100854.03
2023-04-20T14:44:53.359Z,100850.22
2023-04-20T14:49:56.135Z,100849.38
2023-04-20T14:54:57.878Z,100846.31
2023-04-20T14:59:59.982Z,100833.34
2023-04-20T15:05:01.980Z,100837.16
2023-04-20T15:10:04.381Z,100842.41
2023-04-20T15:15:06.652Z,100824.56
2023-04-20T15:20:09.140Z,100819.75
2023-04-20T15:25:11.105Z,100823.19
2023-04-20T15:30:12.870Z,100813.03
2023-04-20T15:35:14.761Z,100807.78
2023-04-20T15:40:16.397Z,100801.09
2023-04-20T15:45:18.364Z,100800.84
2023-04-20T15:50:20.666Z,100792.81
2023-04-20T15:55:22.544Z,100801.22
2023-04-20T16:00:24.983Z,100803.13
2023-04-20T16:05:26.591Z,100813.25
2023-04-20T16:10:28.137Z,100804.09
2023-04-20T16:15:29.763Z,100799.88
2023-04-20T16:20:31.361Z,100798.88
2023-04-20T16:25:32.883Z,100810.59
2023-04-20T16:30:34.932Z,100827.78
2023-04-20T16:35:36.638Z,100849.69
2023-04-20T16:40:38.193Z,100854.47
2023-04-20T16:45:40.026Z,100861.03
2023-04-20T16:50:42.313Z,100864.59
2023-04-20T16:55:44.061Z,100860.03
2023-04-20T17:00:45.584Z,100873.16
2023-04-20T17:05:47.225Z,100886.16
2023-04-20T17:10:48.761Z,100889.94
2023-04-20T17:15:50.270Z,100882.88
2023-04-20T17:20:51.842Z,100884.97
2023-04-20T17:25:54.412Z,100899.59
2023-04-20T17:30:55.896Z,100892.72
2023-04-20T17:35:57.531Z,100897.97
2023-04-20T17:40:59.057Z,100900.13
2023-04-20T17:46:00.659Z,100913.78
2023-04-20T17:51:02.371Z,100915.94
2023-04-20T17:56:03.999Z,100918.84
2023-04-20T18:01:05.641Z,100911.66
2023-04-20T18:06:07.355Z,100911.78
2023-04-20T18:11:08.893Z,100905.25
2023-04-20T18:16:10.440Z,100910.16
2023-04-20T18:21:11.975Z,100908.13
2023-04-20T18:26:13.501Z,100909.59
2023-04-20T18:31:15.119Z,100900.97
2023-04-20T18:36:16.769Z,100911.38
2023-04-20T18:41:18.406Z,100907.94
2023-04-20T18:46:20.099Z,100913.44
2023-04-20T18:51:21.673Z,100908.72
2023-04-20T18:56:23.209Z,100909.00
2023-04-20T19:01:24.813Z,100911.47
2023-04-20T19:06:26.519Z,100913.78
2023-04-20T19:11:30.771Z,100908.84
2023-04-20T19:16:33.705Z,100902.91
2023-04-20T19:21:35.395Z,100891.19
2023-04-20T19:26:36.928Z,100885.84
2023-04-20T19:31:39.107Z,100890.34
2023-04-20T19:36:41.037Z,100882.03
2023-04-20T19:41:42.578Z,100873.94
2023-04-20T19:46:44.146Z,100864.69
2023-04-20T19:51:45.610Z,100854.41
2023-04-20T19:56:47.144Z,100855.56
2023-04-20T20:01:50.655Z,100854.88
2023-04-20T20:06:52.488Z,100856.38
2023-04-20T20:11:54.055Z,100873.44
2023-04-20T20:16:55.548Z,100876.34
2023-04-20T20:21:57.179Z,100880.34
2023-04-20T20:26:58.668Z,100879.56
2023-04-20T20:32:00.177Z,100899.03
2023-04-20T20:37:01.687Z,100906.41
2023-04-20T20:42:03.379Z,100903.16
2023-04-20T20:47:06.093Z,100911.00
2023-04-20T20:52:07.948Z,100907.09
2023-04-20T20:57:10.359Z,100900.88
2023-04-20T21:02:12.313Z,100888.00
2023-04-20T21:07:14.560Z,100884.72
2023-04-20T21:12:16.119Z,100882.75
2023-04-20T21:17:18.526Z,100880.47
2023-04-20T21:22:20.661Z,100884.88
2023-04-20T21:27:22.930Z,100877.69
2023-04-20T21:32:25.353Z,100877.06
2023-04-20T21:37:27.245Z,100866.91
2023-04-20T21:42:28.926Z,100870.50
2023-04-20T21:47:31.228Z,100879.31
2023-04-20T21:52:33.919Z,100866.09
2023-04-20T21:57:35.411Z,100862.38
2023-04-20T22:02:37.072Z,100849.63
2023-04-20T22:07:39.489Z,100830.84
2023-04-20T22:12:42.168Z,100820.38
2023-04-20T22:17:44.406Z,100829.03
2023-04-20T22:22:46.319Z,100838.00
2023-04-20T22:27:48.201Z,100834.56
2023-04-20T22:32:50.551Z,100835.56
2023-04-20T22:37:52.299Z,100836.56
2023-04-20T22:42:54.114Z,100828.06
2023-04-20T22:47:56.146Z,100817.59
2023-04-20T22:52:57.705Z,100806.97
2023-04-20T22:57:59.643Z,100802.75
2023-04-20T23:03:01.468Z,100782.13
2023-04-20T23:08:03.427Z,100801.09
2023-04-20T23:13:05.230Z,100779.22
2023-04-20T23:18:07.246Z,100776.44
2023-04-20T23:23:09.169Z,100771.84
2023-04-20T23:28:10.748Z,100773.84
2023-04-20T23:33:12.727Z,100766.34
2023-04-20T23:38:15.222Z,100774.34
2023-04-20T23:43:17.240Z,100773.19
2023-04-20T23:48:18.758Z,100771.59
2023-04-20T23:53:20.254Z,100766.34
2023-04-20T23:58:25.887Z,100756.22
